Main page
METAR-TAF:

METAR-TAF

Airports :

Båtsfjord Airport

Båtsfjord, Norway

latitude: 70-38N, longitude: 029-44E, elevation: 10 m

Current weather observation

The report was made 20 minutes ago, at 20:20 UTC
Wind 15 kt from the South/Southwest
Temperature -10°C
Humidity 61%
Pressure 980 hPa
Visibility 10 km or more
no clouds below 1500 m and no cumulonimbus

METAR: ENBS 092020Z 21015KT CAVOK M10/M16 Q0980

Time: 21:40 (20:40 UTC)


TAF: missing

Weather observations and forecasts of more than 4000 airports (METAR and TAF reports).

The available stations are represented by yellow and red dots on the map.

Hover mouse over dot to see the name of the station.

Then click to see weather observations and forecasts.

To change the map : click on the green buttons with a black cross to zoom in, on the green button with a dash to zoom out, or on the green arrows for adjacent maps.


METAR-TAF: